createdAt,value
2023-09-18T00:00:13.442Z,100599.25
2023-09-18T00:02:40.847Z,100596.44
2023-09-18T00:05:08.040Z,100607.41
2023-09-18T00:07:34.746Z,100597.44
2023-09-18T00:10:01.384Z,100585.41
2023-09-18T00:12:28.029Z,100587.44
2023-09-18T00:14:54.683Z,100561.03
2023-09-18T00:17:22.019Z,100546.66
2023-09-18T00:19:48.700Z,100537.47
2023-09-18T00:22:17.586Z,100528.75
2023-09-18T00:24:44.682Z,100499.03
2023-09-18T00:27:12.344Z,100472.19
2023-09-18T00:29:39.001Z,100475.47
2023-09-18T00:32:06.210Z,100486.72
2023-09-18T00:34:35.498Z,100476.75
2023-09-18T00:37:04.415Z,100439.88
2023-09-18T00:39:33.526Z,100412.25
2023-09-18T00:42:03.609Z,100464.13
2023-09-18T00:44:30.788Z,100519.63
2023-09-18T00:46:59.839Z,100545.41
2023-09-18T00:49:26.704Z,100549.03
2023-09-18T00:51:53.537Z,100543.09
2023-09-18T00:54:20.861Z,100548.72
2023-09-18T00:56:49.662Z,100546.41
2023-09-18T00:59:18.522Z,100531.28
2023-09-18T01:01:45.846Z,100531.00
2023-09-18T01:04:14.339Z,100527.41
2023-09-18T01:06:43.402Z,100528.66
2023-09-18T01:09:16.243Z,100529.13
2023-09-18T01:11:51.461Z,100522.47
2023-09-18T01:14:50.711Z,100526.53
2023-09-18T01:17:17.939Z,100522.66
2023-09-18T01:19:48.833Z,100529.53
2023-09-18T01:22:19.590Z,100532.84
2023-09-18T01:24:51.032Z,100541.00
2023-09-18T01:27:21.490Z,100530.50
2023-09-18T01:29:57.605Z,100532.28
2023-09-18T01:32:28.857Z,100525.09
2023-09-18T01:34:58.183Z,100518.69
2023-09-18T01:37:28.792Z,100511.53
2023-09-18T01:39:59.110Z,100498.75
2023-09-18T01:42:31.076Z,100483.59
2023-09-18T01:44:57.705Z,100494.06
2023-09-18T01:47:24.694Z,100496.59
2023-09-18T01:49:51.419Z,100486.63
2023-09-18T01:52:18.527Z,100488.66
2023-09-18T01:54:45.619Z,100497.09
2023-09-18T01:57:14.738Z,100488.38
2023-09-18T01:59:46.231Z,100481.97
2023-09-18T02:02:25.709Z,100483.25
2023-09-18T02:05:07.472Z,100483.69
2023-09-18T02:07:39.394Z,100473.72
2023-09-18T02:10:06.882Z,100489.03
2023-09-18T02:12:33.515Z,100491.84
2023-09-18T02:15:05.291Z,100495.94
2023-09-18T02:17:32.021Z,100495.94
2023-09-18T02:19:58.770Z,100504.06
2023-09-18T02:22:27.823Z,100503.28
2023-09-18T02:24:54.434Z,100503.28
2023-09-18T02:27:23.394Z,100486.91
2023-09-18T02:29:51.216Z,100492.53
2023-09-18T02:32:17.891Z,100486.91
2023-09-18T02:34:44.607Z,100476.91
2023-09-18T02:37:11.241Z,100472.56
2023-09-18T02:39:40.826Z,100463.84
2023-09-18T02:42:07.535Z,100450.28
2023-09-18T02:44:34.177Z,100451.03
2023-09-18T02:47:03.873Z,100450.28
2023-09-18T02:49:31.069Z,100444.38
2023-09-18T02:51:57.761Z,100444.84
2023-09-18T02:54:24.404Z,100446.13
2023-09-18T02:56:51.060Z,100441.75
2023-09-18T02:59:17.768Z,100448.63
2023-09-18T03:01:44.534Z,100458.31
2023-09-18T03:04:11.232Z,100451.94
2023-09-18T03:06:40.978Z,100453.97
2023-09-18T03:09:07.620Z,100458.03
2023-09-18T03:11:34.339Z,100456.00
2023-09-18T03:14:00.962Z,100450.88
2023-09-18T03:16:27.723Z,100456.50
2023-09-18T03:18:54.786Z,100457.75
2023-09-18T03:21:21.670Z,100452.13
2023-09-18T03:23:51.292Z,100455.72
2023-09-18T03:26:20.338Z,100458.53
2023-09-18T03:28:47.055Z,100443.69
2023-09-18T03:31:13.688Z,100438.06
2023-09-18T03:33:40.353Z,100433.72
2023-09-18T03:36:07.518Z,100434.97
2023-09-18T03:38:36.549Z,100439.06
2023-09-18T03:41:03.350Z,100447.19
2023-09-18T03:43:30.097Z,100443.59
2023-09-18T03:46:03.750Z,100445.16
2023-09-18T03:48:32.121Z,100439.22
2023-09-18T03:50:58.754Z,100441.75
2023-09-18T03:53:25.440Z,100447.38
2023-09-18T03:55:53.358Z,100442.22
2023-09-18T03:58:21.145Z,100436.59
2023-09-18T04:00:50.567Z,100435.84
2023-09-18T04:03:22.228Z,100439.88
2023-09-18T04:05:48.916Z,100436.28
2023-09-18T04:08:15.547Z,100440.38
2023-09-18T04:10:42.283Z,100436.78
2023-09-18T04:13:09.897Z,100448.81
2023-09-18T04:15:39.512Z,100453.66
2023-09-18T04:18:09.026Z,100442.91
2023-09-18T04:20:37.069Z,100441.34
2023-09-18T04:23:31.681Z,100439.00
2023-09-18T04:25:59.575Z,100440.28
2023-09-18T04:28:26.310Z,100433.88
2023-09-18T04:30:55.288Z,100437.19
2023-09-18T04:33:22.968Z,100442.81
2023-09-18T04:35:49.965Z,100440.47
2023-09-18T04:38:16.890Z,100432.03
2023-09-18T04:40:43.711Z,100434.56
2023-09-18T04:43:10.383Z,100440.16
2023-09-18T04:45:37.091Z,100440.16
2023-09-18T04:48:04.376Z,100433.78
2023-09-18T04:50:31.778Z,100437.06
2023-09-18T04:52:58.931Z,100441.16
2023-09-18T04:55:25.772Z,100438.34
2023-09-18T04:57:54.654Z,100435.25
2023-09-18T05:00:24.621Z,100430.88
2023-09-18T05:02:51.609Z,100419.63
2023-09-18T05:05:19.327Z,100422.44
2023-09-18T05:07:50.750Z,100415.28
2023-09-18T05:10:17.728Z,100423.41
2023-09-18T05:12:44.374Z,100431.84
2023-09-18T05:15:11.403Z,100431.06
2023-09-18T05:17:43.769Z,100425.16
2023-09-18T05:20:15.374Z,100423.13
2023-09-18T05:22:44.469Z,100426.44
2023-09-18T05:25:11.426Z,100435.31
2023-09-18T05:27:45.897Z,100435.31
2023-09-18T05:30:19.379Z,100432.50
2023-09-18T05:32:49.151Z,100416.16
2023-09-18T05:35:18.944Z,100411.81
2023-09-18T05:37:47.873Z,100420.22
2023-09-18T05:40:15.315Z,100424.78
2023-09-18T05:42:45.024Z,100426.78
2023-09-18T05:45:12.954Z,100417.59
2023-09-18T05:47:40.456Z,100422.91
2023-09-18T05:50:09.119Z,100423.69
2023-09-18T05:52:36.229Z,100412.94
2023-09-18T05:55:08.730Z,100414.19
2023-09-18T05:57:36.083Z,100412.66
2023-09-18T06:00:05.071Z,100421.09
2023-09-18T06:02:31.844Z,100409.06
2023-09-18T06:05:01.256Z,100401.63
2023-09-18T06:07:28.819Z,100408.09
2023-09-18T06:09:55.704Z,100409.91
2023-09-18T06:12:22.396Z,100408.44
2023-09-18T06:14:49.586Z,100410.06
2023-09-18T06:17:16.579Z,100410.09
2023-09-18T06:19:43.967Z,100410.97
2023-09-18T06:22:10.658Z,100410.38
2023-09-18T06:24:37.799Z,100405.88
2023-09-18T06:27:07.845Z,100404.81
2023-09-18T06:29:35.614Z,100406.81
2023-09-18T06:32:02.679Z,100406.53
2023-09-18T06:34:29.717Z,100407.50
2023-09-18T06:36:59.082Z,100402.38
2023-09-18T06:39:27.238Z,100403.41
2023-09-18T06:41:53.893Z,100402.78
2023-09-18T06:44:20.546Z,100397.16
2023-09-18T06:46:47.169Z,100396.38
2023-09-18T06:49:13.919Z,100392.34
2023-09-18T06:51:43.928Z,100393.78
2023-09-18T06:54:11.284Z,100397.94
2023-09-18T06:56:38.175Z,100382.97
2023-09-18T06:59:10.007Z,100388.09
2023-09-18T07:01:36.757Z,100382.13
2023-09-18T07:04:05.671Z,100371.97
2023-09-18T07:06:32.472Z,100370.72
2023-09-18T07:08:59.150Z,100373.03
2023-09-18T07:11:26.369Z,100369.78
2023-09-18T07:13:53.354Z,100369.56
2023-09-18T07:16:22.513Z,100362.69
2023-09-18T07:18:49.192Z,100354.78
2023-09-18T07:21:15.880Z,100363.97
2023-09-18T07:23:42.647Z,100353.97
2023-09-18T07:26:11.761Z,100352.94
2023-09-18T07:28:42.885Z,100349.16
2023-09-18T07:31:13.330Z,100351.19
2023-09-18T07:33:40.477Z,100348.28
2023-09-18T07:36:07.365Z,100330.94
2023-09-18T07:38:34.392Z,100327.00
2023-09-18T07:41:01.125Z,100326.22
2023-09-18T07:43:27.858Z,100319.56
2023-09-18T07:45:55.831Z,100321.50
2023-09-18T07:48:23.951Z,100327.69
2023-09-18T07:50:53.287Z,100359.59
2023-09-18T07:53:20.376Z,100335.03
2023-09-18T07:55:56.930Z,100333.38
2023-09-18T07:58:29.272Z,100334.06
2023-09-18T08:00:58.880Z,100323.47
2023-09-18T08:03:26.318Z,100311.78
2023-09-18T08:05:56.852Z,100303.53
2023-09-18T08:08:28.024Z,100302.66
2023-09-18T08:11:00.646Z,100292.00
2023-09-18T08:13:29.136Z,100294.16
2023-09-18T08:15:55.957Z,100289.13
2023-09-18T08:18:28.008Z,100300.63
2023-09-18T08:20:55.783Z,100306.53
2023-09-18T08:23:22.539Z,100288.91
2023-09-18T08:25:49.748Z,100280.97
2023-09-18T08:28:18.814Z,100267.41
2023-09-18T08:30:48.449Z,100257.44
2023-09-18T08:33:15.869Z,100252.88
2023-09-18T08:35:42.686Z,100243.97
2023-09-18T08:38:11.873Z,100234.56
2023-09-18T08:40:38.579Z,100234.38
2023-09-18T08:43:05.954Z,100228.25
2023-09-18T08:45:54.281Z,100222.16
2023-09-18T08:48:22.449Z,100228.03
2023-09-18T08:50:54.663Z,100225.25
2023-09-18T08:53:21.427Z,100221.47
2023-09-18T08:55:50.424Z,100208.75
2023-09-18T08:58:20.750Z,100215.22
2023-09-18T09:00:47.475Z,100206.41
2023-09-18T09:03:14.315Z,100195.72
2023-09-18T09:05:41.590Z,100191.44
2023-09-18T09:08:08.559Z,100193.75
2023-09-18T09:10:35.204Z,100189.69
2023-09-18T09:13:06.045Z,100186.13
2023-09-18T09:15:51.145Z,100179.22
2023-09-18T09:18:17.977Z,100182.31
2023-09-18T09:21:02.663Z,100167.56
2023-09-18T09:23:53.199Z,100168.13
2023-09-18T09:26:22.709Z,100162.00
2023-09-18T09:28:49.835Z,100162.28
2023-09-18T09:31:31.733Z,100154.13
2023-09-18T09:34:33.025Z,100152.84
2023-09-18T09:37:02.176Z,100150.53
2023-09-18T09:39:29.066Z,100150.03
2023-09-18T09:41:55.842Z,100146.25
2023-09-18T09:44:22.758Z,100143.72
2023-09-18T09:46:50.835Z,100136.81
2023-09-18T09:49:18.897Z,100134.78
2023-09-18T09:51:45.575Z,100138.63
2023-09-18T09:54:15.272Z,100133.28
2023-09-18T09:56:51.926Z,100135.09
2023-09-18T09:59:22.380Z,100133.63
2023-09-18T10:01:51.514Z,100128.81
2023-09-18T10:04:23.563Z,100135.28
2023-09-18T10:06:58.252Z,100133.56
2023-09-18T10:09:29.845Z,100132.06
2023-09-18T10:11:58.350Z,100142.81
2023-09-18T10:14:43.562Z,100144.34
2023-09-18T10:17:19.194Z,100148.03
2023-09-18T10:20:01.001Z,100146.81
2023-09-18T10:22:39.135Z,100163.72
2023-09-18T10:25:21.787Z,100177.59
2023-09-18T10:27:50.521Z,100174.78
2023-09-18T10:30:20.500Z,100187.56
2023-09-18T10:32:50.856Z,100184.75
2023-09-18T10:35:20.994Z,100201.91
2023-09-18T10:37:52.257Z,100206.84
2023-09-18T10:40:19.822Z,100215.03
2023-09-18T10:42:48.173Z,100223.25
2023-09-18T10:45:17.060Z,100236.34
2023-09-18T10:47:49.251Z,100236.81
2023-09-18T10:50:28.613Z,100233.75
2023-09-18T10:52:59.309Z,100248.31
2023-09-18T10:55:27.571Z,100248.03
2023-09-18T10:58:03.650Z,100278.22
2023-09-18T11:00:37.510Z,100274.66
2023-09-18T11:03:11.285Z,100283.84
2023-09-18T11:05:38.147Z,100292.84
2023-09-18T11:08:27.930Z,100294.69
2023-09-18T11:10:57.902Z,100299.03
2023-09-18T11:13:36.511Z,100306.50
2023-09-18T11:16:28.204Z,100316.00
2023-09-18T11:18:55.214Z,100310.66
2023-09-18T11:21:29.280Z,100314.50
2023-09-18T11:24:14.701Z,100314.00
2023-09-18T11:26:46.165Z,100317.31
2023-09-18T11:29:20.473Z,100342.38
2023-09-18T11:31:52.032Z,100330.09
2023-09-18T11:34:29.654Z,100346.69
2023-09-18T11:36:59.198Z,100355.13
2023-09-18T11:39:38.633Z,100345.19
2023-09-18T11:42:18.965Z,100365.72
2023-09-18T11:44:51.547Z,100360.88
2023-09-18T11:47:21.446Z,100377.00
2023-09-18T11:49:59.139Z,100384.69
2023-09-18T11:52:30.829Z,100380.34
2023-09-18T11:54:59.682Z,100388.38
2023-09-18T11:57:26.547Z,100398.16
2023-09-18T11:59:53.624Z,100406.66
2023-09-18T12:02:29.660Z,100401.81
2023-09-18T12:04:57.026Z,100416.09
2023-09-18T12:07:25.826Z,100417.59
2023-09-18T12:09:52.786Z,100427.81
2023-09-18T12:12:19.551Z,100408.09
2023-09-18T12:14:46.402Z,100418.44
2023-09-18T12:17:17.263Z,100438.56
2023-09-18T12:19:56.858Z,100448.44
2023-09-18T12:22:31.016Z,100425.78
2023-09-18T12:25:16.640Z,100442.25
2023-09-18T12:27:44.254Z,100449.75
2023-09-18T12:30:12.564Z,100448.00
2023-09-18T12:32:40.369Z,100452.56
2023-09-18T12:35:14.446Z,100457.13
2023-09-18T12:37:42.525Z,100455.63
2023-09-18T12:40:23.063Z,100469.69
2023-09-18T12:42:51.178Z,100469.69
2023-09-18T12:45:18.508Z,100461.63
2023-09-18T12:47:45.781Z,100474.78
2023-09-18T12:50:15.673Z,100468.19
2023-09-18T12:52:42.826Z,100497.56
2023-09-18T12:55:23.614Z,100494.81
2023-09-18T12:57:51.055Z,100498.97
2023-09-18T13:00:27.848Z,100495.44
2023-09-18T13:02:58.425Z,100504.44
2023-09-18T13:05:34.028Z,100496.53
2023-09-18T13:08:07.177Z,100509.13
2023-09-18T13:10:47.553Z,100509.38
2023-09-18T13:13:26.410Z,100514.78
2023-09-18T13:15:56.262Z,100530.25
2023-09-18T13:18:25.727Z,100531.53
2023-09-18T13:20:55.715Z,100529.72
2023-09-18T13:23:31.377Z,100536.41
2023-09-18T13:26:10.894Z,100533.31
2023-09-18T13:28:41.906Z,100535.88
2023-09-18T13:31:10.767Z,100561.59
2023-09-18T13:33:41.548Z,100549.25
2023-09-18T13:36:10.848Z,100549.03
2023-09-18T13:38:37.581Z,100550.06
2023-09-18T13:41:06.700Z,100563.91
2023-09-18T13:43:37.198Z,100568.03
2023-09-18T13:46:06.574Z,100566.72
2023-09-18T13:48:34.375Z,100568.28
2023-09-18T13:51:02.809Z,100568.53
2023-09-18T13:53:31.003Z,100556.72
2023-09-18T13:55:57.908Z,100563.44
2023-09-18T13:58:24.646Z,100560.59
2023-09-18T14:00:54.371Z,100569.56
2023-09-18T14:03:21.709Z,100564.66
2023-09-18T14:05:48.542Z,100571.81
2023-09-18T14:08:15.210Z,100561.97
2023-09-18T14:10:44.084Z,100571.53
2023-09-18T14:13:10.959Z,100569.72
2023-09-18T14:15:40.304Z,100560.94
2023-09-18T14:18:07.034Z,100573.78
2023-09-18T14:20:33.775Z,100584.13
2023-09-18T14:23:04.505Z,100582.13
2023-09-18T14:25:31.447Z,100577.03
2023-09-18T14:27:58.066Z,100578.06
2023-09-18T14:30:32.632Z,100590.72
2023-09-18T14:33:02.721Z,100595.25
2023-09-18T14:35:29.566Z,100595.94
2023-09-18T14:37:57.033Z,100600.97
2023-09-18T14:40:25.902Z,100592.91
2023-09-18T14:42:52.655Z,100599.53
2023-09-18T14:45:19.347Z,100611.88
2023-09-18T14:47:46.053Z,100610.94
2023-09-18T14:50:12.756Z,100617.19
2023-09-18T14:52:39.407Z,100614.47
2023-09-18T14:55:06.734Z,100620.66
2023-09-18T14:57:35.685Z,100633.53
2023-09-18T15:00:07.552Z,100614.28
2023-09-18T15:02:36.595Z,100627.63
2023-09-18T15:05:06.129Z,100629.94
2023-09-18T15:07:35.317Z,100627.88
2023-09-18T15:10:02.046Z,100636.91
2023-09-18T15:12:30.960Z,100639.19
2023-09-18T15:15:00.061Z,100632.31
2023-09-18T15:17:29.427Z,100627.69
2023-09-18T15:19:58.383Z,100634.13
2023-09-18T15:22:26.242Z,100641.78
2023-09-18T15:24:53.102Z,100646.28
2023-09-18T15:27:29.422Z,100646.91
2023-09-18T15:29:58.450Z,100656.28
2023-09-18T15:32:25.258Z,100648.47
2023-09-18T15:34:52.207Z,100656.44
2023-09-18T15:37:23.712Z,100651.78
2023-09-18T15:39:52.312Z,100647.06
2023-09-18T15:42:21.095Z,100653.97
2023-09-18T15:44:50.037Z,100658.75
2023-09-18T15:47:16.655Z,100652.16
2023-09-18T15:49:43.274Z,100669.16
2023-09-18T15:52:12.079Z,100657.66
2023-09-18T15:54:41.319Z,100674.31
2023-09-18T15:57:10.264Z,100674.75
2023-09-18T15:59:39.099Z,100669.84
2023-09-18T16:02:07.833Z,100680.78
2023-09-18T16:04:35.758Z,100681.88
2023-09-18T16:07:02.554Z,100676.81
2023-09-18T16:09:31.429Z,100685.34
2023-09-18T16:11:58.056Z,100692.13
2023-09-18T16:14:24.743Z,100702.47
2023-09-18T16:16:52.394Z,100711.59
2023-09-18T16:19:19.286Z,100713.59
2023-09-18T16:21:48.140Z,100698.25
2023-09-18T16:24:16.980Z,100706.88
2023-09-18T16:26:43.723Z,100707.00
2023-09-18T16:29:12.495Z,100725.59
2023-09-18T16:31:39.137Z,100722.25
2023-09-18T16:34:08.481Z,100726.34
2023-09-18T16:36:35.349Z,100731.00
2023-09-18T16:39:02.356Z,100736.88
2023-09-18T16:41:29.329Z,100737.81
2023-09-18T16:43:56.108Z,100745.41
2023-09-18T16:46:25.186Z,100747.13
2023-09-18T16:48:54.939Z,100754.47
2023-09-18T16:51:22.307Z,100758.28
2023-09-18T16:53:54.036Z,100765.34
2023-09-18T16:56:20.788Z,100767.88
2023-09-18T16:58:47.671Z,100774.19
2023-09-18T17:01:14.537Z,100770.69
2023-09-18T17:03:41.461Z,100773.94
2023-09-18T17:06:08.506Z,100788.38
2023-09-18T17:08:35.278Z,100781.59
2023-09-18T17:11:02.016Z,100785.88
2023-09-18T17:13:28.622Z,100777.94
2023-09-18T17:15:55.305Z,100788.91
2023-09-18T17:18:22.180Z,100795.94
2023-09-18T17:20:50.941Z,100801.50
2023-09-18T17:23:18.525Z,100809.38
2023-09-18T17:25:45.555Z,100801.13
2023-09-18T17:28:16.006Z,100814.34
2023-09-18T17:30:42.671Z,100812.72
2023-09-18T17:33:11.663Z,100817.72
2023-09-18T17:35:40.351Z,100830.16
2023-09-18T17:38:07.311Z,100833.19
2023-09-18T17:40:33.962Z,100842.78
2023-09-18T17:43:00.606Z,100851.72
2023-09-18T17:45:27.386Z,100855.69
2023-09-18T17:47:56.216Z,100868.44
2023-09-18T17:50:25.872Z,100872.22
2023-09-18T17:52:53.156Z,100877.53
2023-09-18T17:55:20.694Z,100890.53
2023-09-18T17:57:58.762Z,100888.31
2023-09-18T18:00:28.771Z,100885.38
2023-09-18T18:02:57.839Z,100889.94
2023-09-18T18:05:29.202Z,100890.41
2023-09-18T18:07:56.709Z,100905.16
2023-09-18T18:10:25.484Z,100897.19
2023-09-18T18:12:54.327Z,100901.44
2023-09-18T18:15:21.211Z,100912.41
2023-09-18T18:17:49.158Z,100906.38
2023-09-18T18:20:17.008Z,100915.72
2023-09-18T18:22:43.644Z,100916.56
2023-09-18T18:25:10.763Z,100920.97
2023-09-18T18:27:39.646Z,100923.97
2023-09-18T18:30:06.901Z,100934.13
2023-09-18T18:32:38.533Z,100940.25
2023-09-18T18:35:05.625Z,100942.75
2023-09-18T18:37:33.130Z,100937.78
2023-09-18T18:39:59.762Z,100946.56
2023-09-18T18:42:27.145Z,100947.84
2023-09-18T18:44:54.421Z,100946.13
2023-09-18T18:47:21.093Z,100959.59
2023-09-18T18:49:48.599Z,100964.72
2023-09-18T18:52:18.620Z,100958.81
2023-09-18T18:54:45.335Z,100963.81
2023-09-18T18:57:12.068Z,100966.50
2023-09-18T18:59:41.267Z,100973.38
2023-09-18T19:02:07.979Z,100977.13
2023-09-18T19:04:35.882Z,100978.09
2023-09-18T19:07:05.940Z,100981.66
2023-09-18T19:09:35.342Z,100975.88
2023-09-18T19:12:04.192Z,100982.88
2023-09-18T19:14:30.840Z,100984.44
2023-09-18T19:17:00.825Z,100986.78
2023-09-18T19:19:27.499Z,100993.66
2023-09-18T19:21:54.130Z,100991.31
2023-09-18T19:24:21.351Z,100998.69
2023-09-18T19:26:48.927Z,101001.19
2023-09-18T19:29:17.381Z,101002.91
2023-09-18T19:31:44.059Z,101006.94
2023-09-18T19:34:16.370Z,101015.06
2023-09-18T19:37:02.676Z,101024.78
2023-09-18T19:39:33.761Z,101021.66
2023-09-18T19:42:03.890Z,101020.88
2023-09-18T19:44:45.279Z,101028.50
2023-09-18T19:47:11.983Z,101019.78
2023-09-18T19:49:38.725Z,101039.00
2023-09-18T19:52:08.444Z,101045.69
2023-09-18T19:54:35.075Z,101040.06
2023-09-18T19:57:01.905Z,101030.88
2023-09-18T19:59:28.607Z,101035.72
2023-09-18T20:02:04.672Z,101041.03
2023-09-18T20:04:31.643Z,101040.22
2023-09-18T20:06:58.337Z,101040.22
2023-09-18T20:09:28.418Z,101051.16
2023-09-18T20:11:55.331Z,101061.31
2023-09-18T20:14:31.870Z,101062.22
2023-09-18T20:16:59.325Z,101064.72
2023-09-18T20:19:28.228Z,101054.41
2023-09-18T20:21:54.985Z,101063.81
2023-09-18T20:24:21.687Z,101075.97
2023-09-18T20:26:49.722Z,101068.78
2023-09-18T20:29:19.012Z,101064.09
2023-09-18T20:31:46.448Z,101075.81
2023-09-18T20:34:13.796Z,101074.25
2023-09-18T20:36:42.594Z,101067.22
2023-09-18T20:39:11.839Z,101068.78
2023-09-18T20:41:38.576Z,101071.28
2023-09-18T20:44:08.354Z,101079.41
2023-09-18T20:46:37.677Z,101084.25
2023-09-18T20:49:05.137Z,101080.34
2023-09-18T20:51:32.969Z,101078.75
2023-09-18T20:54:02.311Z,101082.53
2023-09-18T20:56:29.397Z,101085.81
2023-09-18T20:59:02.515Z,101077.81
2023-09-18T21:01:31.948Z,101094.38
2023-09-18T21:03:59.054Z,101096.09
2023-09-18T21:06:30.553Z,101091.72
2023-09-18T21:08:57.498Z,101098.59
2023-09-18T21:11:24.135Z,101108.25
2023-09-18T21:13:50.780Z,101091.88
2023-09-18T21:16:18.023Z,101098.72
2023-09-18T21:18:45.668Z,101097.19
2023-09-18T21:21:17.766Z,101099.97
2023-09-18T21:23:47.147Z,101096.06
2023-09-18T21:26:13.914Z,101097.34
2023-09-18T21:28:41.791Z,101101.38
2023-09-18T21:31:09.907Z,101103.06
2023-09-18T21:33:37.650Z,101098.72
2023-09-18T21:36:20.888Z,101099.94
2023-09-18T21:38:52.690Z,101106.03
2023-09-18T21:41:24.027Z,101101.69
2023-09-18T21:43:50.786Z,101106.97
2023-09-18T21:46:17.453Z,101104.19
2023-09-18T21:48:44.885Z,101107.44
2023-09-18T21:51:19.759Z,101101.81
2023-09-18T21:53:47.765Z,101102.75
2023-09-18T21:56:14.752Z,101104.31
2023-09-18T21:58:44.280Z,101106.34
2023-09-18T22:01:13.915Z,101111.19
2023-09-18T22:03:41.359Z,101102.91
2023-09-18T22:06:08.783Z,101116.16
2023-09-18T22:08:39.169Z,101116.63
2023-09-18T22:11:08.874Z,101113.03
2023-09-18T22:13:38.697Z,101113.03
2023-09-18T22:16:09.810Z,101121.91
2023-09-18T22:18:39.801Z,101138.44
2023-09-18T22:21:12.370Z,101134.84
2023-09-18T22:23:39.579Z,101127.66
2023-09-18T22:26:07.302Z,101141.69
2023-09-18T22:28:37.997Z,101128.91
2023-09-18T22:31:04.896Z,101132.94
2023-09-18T22:33:34.686Z,101141.06
2023-09-18T22:36:13.137Z,101136.38
2023-09-18T22:38:55.905Z,101154.09
2023-09-18T22:41:24.728Z,101135.41
2023-09-18T22:44:29.207Z,101125.88
2023-09-18T22:47:36.933Z,101129.63
2023-09-18T22:50:42.460Z,101121.66
2023-09-18T22:53:09.194Z,101134.59
2023-09-18T22:55:41.102Z,101133.78
2023-09-18T22:58:10.281Z,101142.22
2023-09-18T23:00:40.331Z,101131.47
2023-09-18T23:03:11.172Z,101134.72
2023-09-18T23:05:38.351Z,101155.59
2023-09-18T23:08:09.316Z,101156.84
2023-09-18T23:10:40.845Z,101148.13
2023-09-18T23:13:07.817Z,101178.97
2023-09-18T23:15:35.708Z,101154.94
2023-09-18T23:18:07.250Z,101157.44
2023-09-18T23:20:36.591Z,101155.88
2023-09-18T23:23:03.919Z,101164.31
2023-09-18T23:25:34.007Z,101159.13
2023-09-18T23:28:01.075Z,101158.38
2023-09-18T23:30:30.244Z,101151.19
2023-09-18T23:33:05.859Z,101154.78
2023-09-18T23:35:36.068Z,101168.00
2023-09-18T23:38:08.989Z,101166.47
2023-09-18T23:40:40.386Z,101169.28
2023-09-18T23:43:17.562Z,101168.47
2023-09-18T23:45:46.568Z,101156.47
2023-09-18T23:48:24.009Z,101156.94
2023-09-18T23:50:51.554Z,101158.16
2023-09-18T23:53:20.195Z,101165.03
2023-09-18T23:55:49.143Z,101154.28
2023-09-18T23:58:18.488Z,101161.13
